Latest Weather Observations for Macquarie Island

IDT60801

Issued at 10:02 pm EST Tuesday 26 July 2016 (issued every 30 minutes, with the page automatically refreshed every 10 minutes)

About weather observations | Map of weather stations | Latest weather observations for TAS | Other Formats
Station Details ID: 300004 Name: MACQUARIE ISLAND Lat: -54.50 Lon: 158.94 Height: 6.0 m
Data from the previous 72 hours. | See also: Recent months at Macquarie Island
Date/Time
EST
Temp
°C
App
Temp
°C
Dew
Point
°C
Rel
Hum
%
Delta-T
°C
Wind Press
QNH
hPa
Press
MSL
hPa
Rain since
9am
mm
Dir  Spd
km/h
Gust
km/h
Spd
kts
Gust
kts
26/10:00pm 5.7 1.3 4.5 92 0.5 NNE 17 41 9 22 975.5 - 8.4
26/09:30pm 5.5 2.2 4.3 92 0.5 N 11 28 6 15 976.1 - 8.4
26/09:00pm 5.4 0.3 4.2 92 0.5 NNW 20 44 11 24 976.4 976.7 7.0
26/08:30pm 5.6 -0.2 4.4 92 0.5 ESE 24 54 13 29 976.9 - 5.2
26/08:00pm 5.5 -2.4 4.5 93 0.4 E 35 67 19 36 977.4 - 3.2
26/07:57pm 5.4 -2.1 4.4 93 0.4 ESE 33 67 18 36 977.4 - 3.0
26/07:30pm 5.4 -1.2 4.2 92 0.5 E 28 46 15 25 978.1 - 2.0
26/07:00pm 5.4 -2.0 4.2 92 0.5 E 32 54 17 29 979.0 - 1.2
26/06:30pm 5.3 -1.7 4.1 92 0.5 E 30 50 16 27 979.7 - 0.8
26/06:00pm 5.2 -2.2 4.0 92 0.5 ESE 32 52 17 28 980.2 980.5 0.8
26/05:30pm 5.1 -1.9 3.9 92 0.5 ESE 30 54 16 29 981.0 - 0.8
26/05:00pm 4.9 -2.2 3.7 92 0.5 E 30 50 16 27 981.8 - 0.4
26/04:30pm 4.9 -2.2 3.7 92 0.5 ESE 30 48 16 26 982.5 - 0.2
26/04:11pm 4.7 -2.0 3.5 92 0.5 E 28 46 15 25 983.1 - 0.0
26/04:00pm 4.7 -1.3 3.4 91 0.5 E 24 39 13 21 983.2 - 0.0
26/03:30pm 4.5 -1.5 3.2 91 0.5 E 24 39 13 21 983.9 - 0.0
26/03:00pm 4.5 -2.8 2.7 88 0.7 E 30 48 16 26 984.6 984.9 0.0
26/02:30pm 4.2 -2.0 2.2 87 0.8 E 24 44 13 24 985.1 - 0.0
26/02:14pm 4.2 -3.6 1.9 85 0.9 E 32 50 17 27 985.5 - 0.0
26/02:00pm 4.1 -2.2 1.8 85 0.9 E 24 41 13 22 985.7 - 0.0
26/01:30pm 3.9 -2.4 1.4 84 1.0 E 24 35 13 19 986.1 - 0.0
26/01:00pm 3.6 -2.8 1.0 83 1.0 E 24 39 13 21 986.7 - 0.0
26/12:30pm 3.5 -3.7 0.6 81 1.1 E 28 43 15 23 987.3 - 0.0
26/12:17pm 3.4 -4.2 0.3 80 1.2 E 30 50 16 27 987.5 - 0.0
26/12:00pm 3.3 -3.2 0.2 80 1.2 ESE 24 35 13 19 987.6 987.9 0.0
26/11:30am 3.2 -4.5 -0.3 78 1.3 E 30 41 16 22 988.6 - 0.0
26/11:00am 3.3 -3.7 -0.2 78 1.3 E 26 35 14 19 989.0 - 0.0
26/10:30am 3.1 -2.5 0.0 80 1.2 E 19 30 10 16 989.2 - 0.0
26/10:00am 2.9 -3.3 -0.4 79 1.2 ESE 22 30 12 16 989.6 - 0.0
26/09:30am 2.9 -2.4 -0.7 77 1.3 E 17 26 9 14 990.0 - 0.0
26/09:00am 2.8 -2.9 -1.0 76 1.4 E 19 24 10 13 990.1 990.4 1.6
26/08:30am 2.7 -1.6 -1.3 75 1.4 W 11 19 6 10 990.3 - 1.6
26/08:00am 2.5 -0.7 -0.8 79 1.2 W 6 13 3 7 990.4 - 1.6
26/07:30am 1.8 -0.3 -0.6 84 0.9 CALM 0 0 0 0 990.4 - 1.6
26/07:00am 1.7 -0.4 -0.5 85 0.8 CALM 0 0 0 0 990.0 - 1.6
26/06:30am 1.8 -0.2 -0.4 85 0.8 CALM 0 0 0 0 989.8 - 1.6
26/06:00am 2.3 0.3 -0.4 82 1.0 CALM 0 0 0 0 990.3 990.6 1.6
26/05:30am 2.8 0.7 -0.5 79 1.2 CALM 0 0 0 0 990.3 - 1.6
26/05:00am 3.0 -2.3 -0.5 78 1.3 W 17 32 9 17 990.5 - 1.6
26/04:30am 2.8 -2.5 -0.5 79 1.2 W 17 22 9 12 989.8 - 1.6
26/04:00am 2.9 -2.7 -0.2 80 1.1 W 19 26 10 14 989.5 - 1.6
26/03:30am 2.9 -1.9 0.1 82 1.0 W 15 20 8 11 989.1 - 1.6
26/03:00am 3.0 1.0 0.1 81 1.1 CALM 0 6 0 3 989.2 989.5 1.6
26/02:30am 3.2 -2.3 0.4 82 1.1 W 19 30 10 16 989.1 - 1.6
26/02:00am 3.2 -3.3 0.4 82 1.1 W 24 37 13 20 988.7 - 1.6
26/01:30am 3.5 -4.4 1.1 84 0.9 W 32 41 17 22 988.3 - 1.6
26/01:00am 3.8 -3.5 2.5 91 0.5 W 30 35 16 19 988.0 - 1.6
26/12:30am 3.8 -3.1 2.6 92 0.5 W 28 37 15 20 987.6 - 1.6
26/12:00am 3.8 -2.3 2.9 94 0.4 WNW 24 30 13 16 987.5 987.8 1.6
 
Date/Time
EST
Temp
°C
App
Temp
°C
Dew
Point
°C
Rel
Hum
%
Delta-T
°C
Wind Press
QNH
hPa
Press
MSL
hPa
Rain since
9am
mm
Dir  Spd
km/h
Gust
km/h
Spd
kts
Gust
kts
25/11:30pm 3.5 -3.4 2.6 94 0.4 WNW 28 35 15 19 987.2 - 1.6
25/11:00pm 3.5 -5.1 2.5 93 0.4 WNW 37 46 20 25 987.1 - 1.6
25/10:30pm 3.6 -4.6 2.7 94 0.4 NW 35 44 19 24 986.9 - 1.6
25/10:00pm 3.5 -5.5 2.5 93 0.4 NW 39 46 21 25 986.8 - 1.4
25/09:36pm 4.2 -7.6 2.7 90 0.6 NNW 54 63 29 34 986.3 - 0.4
25/09:33pm 5.2 -3.2 3.9 91 0.5 N 37 61 20 33 986.3 - 0.0
25/09:30pm 5.2 -2.8 3.9 91 0.5 N 35 44 19 24 986.3 - 0.0
25/09:00pm 5.0 -2.5 3.7 91 0.6 N 32 37 17 20 986.9 987.2 0.0
25/08:30pm 5.0 -2.5 3.7 91 0.5 N 32 37 17 20 987.3 - 0.0
25/08:00pm 5.1 -2.9 3.6 90 0.6 N 35 41 19 22 987.6 - 0.0
25/07:30pm 5.0 -3.1 3.3 89 0.7 N 35 41 19 22 987.8 - 0.0
25/07:00pm 5.1 -3.0 3.1 87 0.8 NNW 35 44 19 24 988.0 - 0.0
25/06:30pm 5.2 -3.0 2.9 85 0.9 NNW 35 43 19 23 988.3 - 0.0
25/06:00pm 5.0 -3.2 2.7 85 0.9 NNW 35 39 19 21 988.5 988.8 0.0
25/05:30pm 5.0 -2.8 2.9 86 0.9 NNW 33 37 18 20 988.8 - 0.0
25/05:00pm 4.9 -2.7 2.8 86 0.9 NNW 32 39 17 21 989.1 - 0.0
25/04:30pm 4.8 -2.8 3.0 88 0.7 NNW 32 37 17 20 989.6 - 0.0
25/04:00pm 4.8 -2.8 3.0 88 0.7 NNW 32 35 17 19 989.7 - 0.0
25/03:30pm 4.7 -2.9 2.9 88 0.7 NNW 32 35 17 19 989.7 - 0.0
25/03:00pm 4.7 -2.5 2.9 88 0.7 NNW 30 33 16 18 989.9 990.2 0.0
25/02:30pm 4.6 -2.3 2.8 88 0.7 NNW 28 32 15 17 990.1 - 0.0
25/02:00pm 5.0 -2.1 3.3 89 0.7 NNW 30 35 16 19 990.1 - 0.0
25/01:30pm 5.0 -1.8 3.2 88 0.7 NNW 28 32 15 17 990.2 - 0.0
25/01:00pm 4.7 -2.1 2.9 88 0.7 NNW 28 32 15 17 990.4 - 0.0
25/12:30pm 4.7 -1.8 2.7 87 0.8 NNW 26 30 14 16 990.6 - 0.0
25/12:00pm 4.9 -0.5 2.6 85 0.9 NW 20 24 11 13 990.7 991.0 0.0
25/11:30am 4.7 -1.9 2.1 83 1.0 NW 26 30 14 16 990.9 - 0.0
25/11:00am 4.7 -1.5 2.1 83 1.0 NW 24 28 13 15 991.1 - 0.0
25/10:30am 4.4 -2.7 1.3 80 1.2 WNW 28 35 15 19 991.3 - 0.0
25/10:00am 4.2 -4.3 0.7 78 1.3 WNW 35 41 19 22 991.3 - 0.0
25/09:30am 3.6 -3.6 0.5 80 1.2 WNW 28 39 15 21 991.3 - 0.0
25/09:00am 3.5 -5.0 0.9 83 1.0 WNW 35 44 19 24 991.2 991.5 1.0
25/08:30am 3.4 -4.5 1.3 86 0.8 WNW 32 39 17 21 990.9 - 1.0
25/08:00am 3.0 -2.3 1.7 91 0.5 NW 19 22 10 12 990.8 - 1.0
25/07:30am 2.5 -2.2 1.2 91 0.5 WNW 15 19 8 10 990.7 - 1.0
25/07:00am 2.2 -3.5 0.7 90 0.6 WNW 20 24 11 13 990.7 - 1.0
25/06:30am 1.7 -3.9 0.2 90 0.6 WNW 19 20 10 11 990.8 - 1.0
25/06:00am 1.6 -4.6 0.0 89 0.6 WNW 22 28 12 15 990.7 991.0 1.0
25/05:30am 1.4 -4.4 -0.4 88 0.6 WNW 20 24 11 13 990.7 - 0.8
25/05:00am 1.2 -4.7 -1.0 85 0.8 W 20 28 11 15 990.6 - 0.8
25/04:30am 0.9 -5.5 -1.7 83 0.9 W 22 30 12 16 990.4 - 0.8
25/04:00am 0.6 -6.3 -2.3 81 1.0 W 24 33 13 18 990.5 - 0.8
25/03:30am 1.0 -6.8 -3.5 72 1.6 W 28 37 15 20 990.3 - 0.8
25/03:00am 0.7 -8.0 -4.7 67 1.8 W 32 46 17 25 990.1 990.4 0.8
25/02:49am 0.6 -7.3 -4.8 67 1.8 W 28 54 15 29 990.0 - 0.8
25/02:30am 0.5 -8.2 -5.3 65 1.9 W 32 44 17 24 989.9 - 0.8
25/02:00am 0.4 -8.5 -5.0 67 1.7 W 33 46 18 25 990.0 - 0.8
25/01:52am 0.2 -7.7 -5.2 67 1.7 W 28 46 15 25 989.9 - 0.8
25/01:30am 0.1 -6.7 -5.1 68 1.7 WSW 22 39 12 21 989.9 - 0.8
25/01:00am 0.0 -5.8 -4.4 72 1.4 W 17 28 9 15 989.8 - 0.8
25/12:30am -0.2 -7.4 -5.0 70 1.5 WSW 24 39 13 21 989.4 - 0.8
25/12:00am -0.2 -6.5 -4.3 74 1.3 WSW 20 28 11 15 989.0 989.3 0.8
 
Date/Time
EST
Temp
°C
App
Temp
°C
Dew
Point
°C
Rel
Hum
%
Delta-T
°C
Wind Press
QNH
hPa
Press
MSL
hPa
Rain since
9am
mm
Dir  Spd
km/h
Gust
km/h
Spd
kts
Gust
kts
24/11:30pm -0.5 -7.6 -4.5 74 1.3 WSW 24 41 13 22 988.8 - 0.8
24/11:00pm -0.6 -7.0 -4.5 75 1.2 WSW 20 39 11 21 988.7 - 0.8
24/10:30pm -0.4 -8.4 -5.4 69 1.5 W 28 39 15 21 988.5 - 0.8
24/10:00pm -0.6 -7.4 -5.4 70 1.5 WSW 22 35 12 19 988.3 - 0.8
24/09:30pm -1.0 -8.2 -5.2 73 1.3 WSW 24 43 13 23 988.0 - 0.8
24/09:00pm -1.0 -8.2 -5.6 71 1.4 WSW 24 43 13 23 987.9 988.2 0.8
24/08:30pm -0.8 -8.7 -5.0 73 1.3 WSW 28 44 15 24 987.6 - 0.8
24/08:16pm -0.8 -8.8 -5.4 71 1.4 WSW 28 46 15 25 987.5 - 0.8
24/08:00pm -1.1 -7.5 -5.1 74 1.2 WSW 20 33 11 18 987.3 - 0.8
24/07:30pm -0.4 -5.9 -5.8 67 1.7 SW 15 24 8 13 986.8 - 0.8
24/07:00pm -0.7 -7.1 -6.4 65 1.7 SW 19 26 10 14 986.5 - 0.8
24/06:30pm -0.9 -6.8 -5.9 69 1.5 SW 17 28 9 15 986.4 - 0.8
24/06:00pm -1.0 -7.6 -6.5 66 1.6 SW 20 35 11 19 986.3 986.6 0.8
24/05:30pm -1.1 -8.0 -6.4 67 1.5 SW 22 46 12 25 986.0 - 0.8
24/05:00pm -0.9 -8.6 -6.6 65 1.7 SW 26 46 14 25 985.8 - 0.8
24/04:30pm -0.7 -7.6 -6.6 64 1.7 SW 22 37 12 20 985.3 - 0.8
24/04:00pm -1.2 -7.1 -5.2 74 1.2 SW 17 30 9 16 985.2 - 0.8
24/03:30pm -0.6 -8.7 -6.8 63 1.8 WSW 28 54 15 29 985.1 - 0.8
24/03:24pm -0.6 -8.7 -6.8 63 1.8 WSW 28 54 15 29 985.0 - 0.8
24/03:00pm -1.0 -7.5 -5.6 71 1.4 SW 20 26 11 14 985.0 985.3 0.8
24/02:30pm -1.9 -10.7 -6.3 72 1.2 WSW 32 56 17 30 984.8 - 0.8
24/02:00pm -1.9 -10.7 -5.7 75 1.1 WSW 32 52 17 28 984.8 - 0.8
24/01:56pm -1.2 -9.2 -6.1 69 1.4 WSW 28 52 15 28 984.6 - 0.8
24/01:30pm -1.0 -9.0 -6.0 69 1.5 WSW 28 41 15 22 984.1 - 0.8
24/01:00pm -0.7 -9.2 -6.6 64 1.7 WSW 30 44 16 24 984.0 - 0.8
24/12:30pm -0.8 -9.3 -6.9 63 1.8 WSW 30 48 16 26 983.8 - 0.8
24/12:08pm -0.7 -9.5 -6.4 65 1.7 W 32 59 17 32 983.5 - 0.8
24/12:00pm -0.6 -9.6 -5.8 68 1.6 W 33 44 18 24 983.3 983.6 0.8
24/11:51am -0.8 -8.8 -5.8 69 1.5 WSW 28 46 15 25 983.2 - 0.8
24/11:30am -1.1 -7.8 -4.4 78 1.0 WSW 22 35 12 19 983.0 - 0.8
24/11:00am -0.3 -7.6 -5.9 66 1.7 WSW 24 46 13 25 982.8 - 0.6
24/10:36am -0.3 -8.3 -5.5 68 1.6 WSW 28 46 15 25 982.9 - 0.2
24/10:30am -0.4 -8.0 -5.6 68 1.6 WSW 26 41 14 22 982.9 - 0.0
24/10:00am -0.3 -6.6 -4.4 74 1.3 WSW 20 44 11 24 982.5 - 0.0
24/09:30am -0.9 -8.7 -3.6 82 0.8 WSW 28 54 15 29 982.0 - 0.0
24/09:20am -0.7 -8.5 -4.2 77 1.1 WSW 28 50 15 27 982.0 - 0.0
24/09:00am 0.1 -6.6 -4.0 74 1.4 S 22 33 12 18 981.6 981.9 2.0
24/08:30am 0.0 -7.5 -4.1 74 1.3 S 26 43 14 23 981.4 - 2.0
24/08:00am -0.4 -7.1 -4.3 75 1.2 SSW 22 46 12 25 981.0 - 2.0
24/07:30am -0.2 -7.7 -4.1 75 1.3 SSW 26 41 14 22 980.4 - 2.0
24/07:00am -0.3 -8.9 -3.8 77 1.1 S 32 43 17 23 979.6 - 2.0
24/06:30am -0.6 -8.4 -3.6 80 1.0 SSW 28 43 15 23 979.4 - 2.0
24/06:00am -0.3 -7.4 -4.2 75 1.3 SSW 24 41 13 22 979.0 979.3 2.0
24/05:30am -0.6 -8.0 -3.8 79 1.0 SSW 26 41 14 22 978.6 - 2.0
24/05:00am -0.3 -7.2 -3.0 82 0.9 S 24 32 13 17 978.0 - 2.0
24/04:30am -0.4 -9.0 -3.8 78 1.1 S 32 43 17 23 977.6 - 2.0
24/04:00am -0.2 -7.5 -3.2 80 1.0 SSW 26 39 14 21 977.2 - 2.0
24/03:30am -0.2 -8.3 -2.9 82 0.9 S 30 46 16 25 976.6 - 2.0
24/03:28am 0.0 -7.6 -2.5 83 0.8 S 28 46 15 25 976.6 - 2.0
24/03:00am 0.0 -6.9 -2.5 83 0.9 SSW 24 35 13 19 976.0 976.3 2.0
24/02:30am 0.1 -7.1 -1.8 87 0.7 S 26 37 14 20 975.7 - 2.0
24/02:00am 0.3 -7.3 -1.8 86 0.7 S 28 39 15 21 975.4 - 2.0
24/01:30am 0.2 -7.0 -2.2 84 0.8 S 26 37 14 20 974.9 - 2.0
24/01:00am 0.5 -7.5 -2.2 82 1.0 S 30 43 16 23 974.5 - 2.0
24/12:30am 0.1 -8.0 -2.8 81 1.0 S 30 44 16 24 974.1 - 2.0
24/12:00am 0.8 -6.7 -1.6 84 0.9 S 28 43 15 23 973.4 973.7 2.0
 
Date/Time
EST
Temp
°C
App
Temp
°C
Dew
Point
°C
Rel
Hum
%
Delta-T
°C
Wind Press
QNH
hPa
Press
MSL
hPa
Rain since
9am
mm
Dir  Spd
km/h
Gust
km/h
Spd
kts
Gust
kts
23/11:35pm 0.6 -8.3 -1.8 84 0.9 S 35 57 19 31 972.9 - 2.0
23/11:30pm 0.7 -8.2 -1.7 84 0.9 S 35 52 19 28 972.8 - 2.0
23/11:19pm 0.5 -8.4 -2.2 82 1.0 S 35 54 19 29 972.6 - 2.0
23/11:00pm 0.9 -8.0 -1.7 83 0.9 S 35 50 19 27 972.2 - 2.0
23/10:30pm 1.1 -8.4 -1.1 85 0.8 S 39 56 21 30 971.6 - 2.0
23/10:22pm 0.7 -9.3 -2.0 82 1.0 S 41 59 22 32 971.5 - 2.0

Other Formats:

Comma delimited format used in spreadsheet applications
http://www.bom.gov.au/fwo/IDT60801/IDT60801.94998.axf

JavaScript Object Notation format (JSON) in row-major order
http://www.bom.gov.au/fwo/IDT60801/IDT60801.94998.json